sensor_id;sensor_type;location;lat;lon;timestamp;temperature;humidity
32296;DHT22;18781;51.550;5.418;2023-03-31T00:00:19;14.50;68.70
32296;DHT22;18781;51.550;5.418;2023-03-31T00:02:44;14.50;68.30
32296;DHT22;18781;51.550;5.418;2023-03-31T00:05:10;14.40;68.40
32296;DHT22;18781;51.550;5.418;2023-03-31T00:07:36;14.50;68.50
32296;DHT22;18781;51.550;5.418;2023-03-31T00:10:05;14.50;68.50
32296;DHT22;18781;51.550;5.418;2023-03-31T00:12:31;14.50;68.50
32296;DHT22;18781;51.550;5.418;2023-03-31T00:14:56;14.40;68.60
32296;DHT22;18781;51.550;5.418;2023-03-31T00:17:22;14.40;68.70
32296;DHT22;18781;51.550;5.418;2023-03-31T00:19:47;14.40;68.70
32296;DHT22;18781;51.550;5.418;2023-03-31T00:22:15;14.40;68.80
32296;DHT22;18781;51.550;5.418;2023-03-31T00:24:43;14.40;68.80
32296;DHT22;18781;51.550;5.418;2023-03-31T00:27:09;14.40;68.90
32296;DHT22;18781;51.550;5.418;2023-03-31T00:29:36;14.40;68.90
32296;DHT22;18781;51.550;5.418;2023-03-31T00:32:05;14.40;69.00
32296;DHT22;18781;51.550;5.418;2023-03-31T00:34:31;14.40;69.10
32296;DHT22;18781;51.550;5.418;2023-03-31T00:36:57;14.40;69.00
32296;DHT22;18781;51.550;5.418;2023-03-31T00:39:27;14.40;69.10
32296;DHT22;18781;51.550;5.418;2023-03-31T00:42:01;14.40;69.10
32296;DHT22;18781;51.550;5.418;2023-03-31T00:44:29;14.40;68.90
32296;DHT22;18781;51.550;5.418;2023-03-31T00:46:56;14.40;69.00
32296;DHT22;18781;51.550;5.418;2023-03-31T00:49:27;14.40;69.00
32296;DHT22;18781;51.550;5.418;2023-03-31T00:51:58;14.40;69.10
32296;DHT22;18781;51.550;5.418;2023-03-31T00:54:25;14.40;69.40
32296;DHT22;18781;51.550;5.418;2023-03-31T00:56:52;14.30;69.30
32296;DHT22;18781;51.550;5.418;2023-03-31T00:59:23;14.30;69.40
32296;DHT22;18781;51.550;5.418;2023-03-31T01:01:52;14.30;69.50
32296;DHT22;18781;51.550;5.418;2023-03-31T01:04:18;14.30;69.50
32296;DHT22;18781;51.550;5.418;2023-03-31T01:07:02;14.30;69.60
32296;DHT22;18781;51.550;5.418;2023-03-31T01:09:30;14.30;70.30
32296;DHT22;18781;51.550;5.418;2023-03-31T01:12:00;14.30;69.70
32296;DHT22;18781;51.550;5.418;2023-03-31T01:14:26;14.30;69.70
32296;DHT22;18781;51.550;5.418;2023-03-31T01:16:52;14.30;69.90
32296;DHT22;18781;51.550;5.418;2023-03-31T01:19:44;14.30;69.90
32296;DHT22;18781;51.550;5.418;2023-03-31T01:27:41;14.30;70.50
32296;DHT22;18781;51.550;5.418;2023-03-31T01:30:45;14.30;70.50
32296;DHT22;18781;51.550;5.418;2023-03-31T01:33:26;14.20;70.80
32296;DHT22;18781;51.550;5.418;2023-03-31T01:38:51;14.20;70.50
32296;DHT22;18781;51.550;5.418;2023-03-31T01:41:32;14.20;70.70
32296;DHT22;18781;51.550;5.418;2023-03-31T01:44:08;14.20;70.70
32296;DHT22;18781;51.550;5.418;2023-03-31T01:46:40;14.20;70.70
32296;DHT22;18781;51.550;5.418;2023-03-31T01:49:20;14.20;71.10
32296;DHT22;18781;51.550;5.418;2023-03-31T01:52:26;14.20;71.00
32296;DHT22;18781;51.550;5.418;2023-03-31T01:55:03;14.20;71.40
32296;DHT22;18781;51.550;5.418;2023-03-31T01:57:36;14.20;71.50
32296;DHT22;18781;51.550;5.418;2023-03-31T02:00:08;14.20;71.40
32296;DHT22;18781;51.550;5.418;2023-03-31T02:02:38;14.20;71.40
32296;DHT22;18781;51.550;5.418;2023-03-31T02:05:09;14.20;71.50
32296;DHT22;18781;51.550;5.418;2023-03-31T02:07:41;14.20;71.40
32296;DHT22;18781;51.550;5.418;2023-03-31T02:10:09;14.20;71.50
32296;DHT22;18781;51.550;5.418;2023-03-31T02:12:37;14.20;71.40
32296;DHT22;18781;51.550;5.418;2023-03-31T02:15:07;14.20;71.40
32296;DHT22;18781;51.550;5.418;2023-03-31T02:17:35;14.20;71.50
32296;DHT22;18781;51.550;5.418;2023-03-31T02:20:08;14.20;71.30
32296;DHT22;18781;51.550;5.418;2023-03-31T02:22:38;14.20;71.40
32296;DHT22;18781;51.550;5.418;2023-03-31T02:25:05;14.20;71.40
32296;DHT22;18781;51.550;5.418;2023-03-31T02:27:34;14.20;71.00
32296;DHT22;18781;51.550;5.418;2023-03-31T02:30:02;14.20;71.30
32296;DHT22;18781;51.550;5.418;2023-03-31T02:32:37;14.20;70.80
32296;DHT22;18781;51.550;5.418;2023-03-31T02:35:04;14.20;71.60
32296;DHT22;18781;51.550;5.418;2023-03-31T02:37:31;14.20;71.50
32296;DHT22;18781;51.550;5.418;2023-03-31T02:40:00;14.10;71.60
32296;DHT22;18781;51.550;5.418;2023-03-31T02:42:27;14.20;71.90
32296;DHT22;18781;51.550;5.418;2023-03-31T02:44:53;14.20;71.90
32296;DHT22;18781;51.550;5.418;2023-03-31T02:47:20;14.20;72.00
32296;DHT22;18781;51.550;5.418;2023-03-31T02:49:52;14.20;72.10
32296;DHT22;18781;51.550;5.418;2023-03-31T02:57:43;14.20;72.50
32296;DHT22;18781;51.550;5.418;2023-03-31T03:03:21;14.20;72.50
32296;DHT22;18781;51.550;5.418;2023-03-31T03:06:10;14.20;72.50
32296;DHT22;18781;51.550;5.418;2023-03-31T03:14:04;14.20;72.50
32296;DHT22;18781;51.550;5.418;2023-03-31T03:16:44;14.20;72.30
32296;DHT22;18781;51.550;5.418;2023-03-31T03:19:19;14.20;72.30
32296;DHT22;18781;51.550;5.418;2023-03-31T03:21:46;14.20;72.50
32296;DHT22;18781;51.550;5.418;2023-03-31T03:24:14;14.20;72.30
32296;DHT22;18781;51.550;5.418;2023-03-31T03:26:40;14.20;72.30
32296;DHT22;18781;51.550;5.418;2023-03-31T03:29:05;14.20;72.30
32296;DHT22;18781;51.550;5.418;2023-03-31T03:31:31;14.20;72.30
32296;DHT22;18781;51.550;5.418;2023-03-31T03:33:58;14.20;72.30
32296;DHT22;18781;51.550;5.418;2023-03-31T03:36:23;14.20;72.40
32296;DHT22;18781;51.550;5.418;2023-03-31T03:38:49;14.10;72.40
32296;DHT22;18781;51.550;5.418;2023-03-31T03:41:15;14.20;72.50
32296;DHT22;18781;51.550;5.418;2023-03-31T03:43:41;14.20;72.50
32296;DHT22;18781;51.550;5.418;2023-03-31T03:46:06;14.20;72.60
32296;DHT22;18781;51.550;5.418;2023-03-31T03:48:32;14.20;72.50
32296;DHT22;18781;51.550;5.418;2023-03-31T03:50:59;14.20;72.50
32296;DHT22;18781;51.550;5.418;2023-03-31T03:53:25;14.20;72.60
32296;DHT22;18781;51.550;5.418;2023-03-31T03:55:51;14.20;72.50
32296;DHT22;18781;51.550;5.418;2023-03-31T03:58:17;14.20;72.50
32296;DHT22;18781;51.550;5.418;2023-03-31T04:00:44;14.10;72.40
32296;DHT22;18781;51.550;5.418;2023-03-31T04:03:10;14.20;72.50
32296;DHT22;18781;51.550;5.418;2023-03-31T04:05:36;14.10;72.40
32296;DHT22;18781;51.550;5.418;2023-03-31T04:08:02;14.10;72.50
32296;DHT22;18781;51.550;5.418;2023-03-31T04:10:29;14.10;72.50
32296;DHT22;18781;51.550;5.418;2023-03-31T04:12:54;14.10;72.60
32296;DHT22;18781;51.550;5.418;2023-03-31T04:15:20;14.10;72.60
32296;DHT22;18781;51.550;5.418;2023-03-31T04:17:46;14.10;72.60
32296;DHT22;18781;51.550;5.418;2023-03-31T04:20:16;14.10;72.60
32296;DHT22;18781;51.550;5.418;2023-03-31T04:22:42;14.00;72.50
32296;DHT22;18781;51.550;5.418;2023-03-31T04:25:12;14.00;72.60
32296;DHT22;18781;51.550;5.418;2023-03-31T04:27:49;14.00;72.70
32296;DHT22;18781;51.550;5.418;2023-03-31T04:30:24;14.00;73.10
32296;DHT22;18781;51.550;5.418;2023-03-31T04:32:59;14.00;72.80
32296;DHT22;18781;51.550;5.418;2023-03-31T04:35:26;14.00;72.80
32296;DHT22;18781;51.550;5.418;2023-03-31T04:38:02;14.00;72.80
32296;DHT22;18781;51.550;5.418;2023-03-31T04:40:28;14.00;72.70
32296;DHT22;18781;51.550;5.418;2023-03-31T04:42:54;14.00;72.70
32296;DHT22;18781;51.550;5.418;2023-03-31T04:45:19;14.00;72.70
32296;DHT22;18781;51.550;5.418;2023-03-31T04:47:45;14.00;72.70
32296;DHT22;18781;51.550;5.418;2023-03-31T04:50:10;14.00;72.70
32296;DHT22;18781;51.550;5.418;2023-03-31T04:52:36;14.00;72.80
32296;DHT22;18781;51.550;5.418;2023-03-31T04:55:03;14.00;72.80
32296;DHT22;18781;51.550;5.418;2023-03-31T04:57:29;14.00;72.80
32296;DHT22;18781;51.550;5.418;2023-03-31T04:59:54;14.00;72.80
32296;DHT22;18781;51.550;5.418;2023-03-31T05:02:20;14.00;72.90
32296;DHT22;18781;51.550;5.418;2023-03-31T05:04:49;14.00;72.90
32296;DHT22;18781;51.550;5.418;2023-03-31T05:07:15;14.00;72.90
32296;DHT22;18781;51.550;5.418;2023-03-31T05:09:41;14.00;72.90
32296;DHT22;18781;51.550;5.418;2023-03-31T05:12:07;14.00;72.80
32296;DHT22;18781;51.550;5.418;2023-03-31T05:14:32;14.00;72.70
32296;DHT22;18781;51.550;5.418;2023-03-31T05:16:58;14.00;72.70
32296;DHT22;18781;51.550;5.418;2023-03-31T05:19:23;14.00;72.70
32296;DHT22;18781;51.550;5.418;2023-03-31T05:21:49;14.00;72.70
32296;DHT22;18781;51.550;5.418;2023-03-31T05:24:15;14.00;72.60
32296;DHT22;18781;51.550;5.418;2023-03-31T05:26:40;13.90;72.50
32296;DHT22;18781;51.550;5.418;2023-03-31T05:29:08;13.90;72.50
32296;DHT22;18781;51.550;5.418;2023-03-31T05:31:34;14.00;72.60
32296;DHT22;18781;51.550;5.418;2023-03-31T05:33:59;13.90;72.60
32296;DHT22;18781;51.550;5.418;2023-03-31T05:36:25;13.90;72.50
32296;DHT22;18781;51.550;5.418;2023-03-31T05:38:51;13.90;72.60
32296;DHT22;18781;51.550;5.418;2023-03-31T05:41:16;13.90;72.70
32296;DHT22;18781;51.550;5.418;2023-03-31T05:43:42;13.80;72.70
32296;DHT22;18781;51.550;5.418;2023-03-31T05:46:08;13.90;72.80
32296;DHT22;18781;51.550;5.418;2023-03-31T05:48:34;13.80;72.80
32296;DHT22;18781;51.550;5.418;2023-03-31T05:51:01;13.80;72.80
32296;DHT22;18781;51.550;5.418;2023-03-31T05:53:27;13.80;72.80
32296;DHT22;18781;51.550;5.418;2023-03-31T05:56:00;13.80;72.90
32296;DHT22;18781;51.550;5.418;2023-03-31T05:58:27;13.80;73.30
32296;DHT22;18781;51.550;5.418;2023-03-31T06:01:13;13.80;73.00
32296;DHT22;18781;51.550;5.418;2023-03-31T06:03:40;13.80;73.30
32296;DHT22;18781;51.550;5.418;2023-03-31T06:06:06;13.80;73.10
32296;DHT22;18781;51.550;5.418;2023-03-31T06:08:34;13.80;73.10
32296;DHT22;18781;51.550;5.418;2023-03-31T06:10:59;13.80;73.10
32296;DHT22;18781;51.550;5.418;2023-03-31T06:13:28;13.80;73.10
32296;DHT22;18781;51.550;5.418;2023-03-31T06:15:55;13.80;73.10
32296;DHT22;18781;51.550;5.418;2023-03-31T06:18:21;13.80;73.30
32296;DHT22;18781;51.550;5.418;2023-03-31T06:20:47;13.80;73.30
32296;DHT22;18781;51.550;5.418;2023-03-31T06:23:13;13.80;73.30
32296;DHT22;18781;51.550;5.418;2023-03-31T06:25:38;13.80;73.30
32296;DHT22;18781;51.550;5.418;2023-03-31T06:28:04;13.80;73.40
32296;DHT22;18781;51.550;5.418;2023-03-31T06:30:31;13.80;73.40
32296;DHT22;18781;51.550;5.418;2023-03-31T06:32:57;13.80;73.40
32296;DHT22;18781;51.550;5.418;2023-03-31T06:35:22;13.80;73.50
32296;DHT22;18781;51.550;5.418;2023-03-31T06:37:48;13.80;73.40
32296;DHT22;18781;51.550;5.418;2023-03-31T06:40:14;13.80;73.30
32296;DHT22;18781;51.550;5.418;2023-03-31T06:42:40;13.80;73.50
32296;DHT22;18781;51.550;5.418;2023-03-31T06:45:06;13.80;73.50
32296;DHT22;18781;51.550;5.418;2023-03-31T06:47:31;13.70;73.50
32296;DHT22;18781;51.550;5.418;2023-03-31T06:49:57;13.70;73.50
32296;DHT22;18781;51.550;5.418;2023-03-31T06:52:22;13.70;73.60
32296;DHT22;18781;51.550;5.418;2023-03-31T06:54:48;13.80;73.70
32296;DHT22;18781;51.550;5.418;2023-03-31T06:57:13;13.70;73.80
32296;DHT22;18781;51.550;5.418;2023-03-31T06:59:39;13.70;73.80
32296;DHT22;18781;51.550;5.418;2023-03-31T07:02:06;13.70;73.80
32296;DHT22;18781;51.550;5.418;2023-03-31T07:04:31;13.70;74.00
32296;DHT22;18781;51.550;5.418;2023-03-31T07:06:57;13.70;74.10
32296;DHT22;18781;51.550;5.418;2023-03-31T07:09:23;13.70;74.10
32296;DHT22;18781;51.550;5.418;2023-03-31T07:11:49;13.70;74.10
32296;DHT22;18781;51.550;5.418;2023-03-31T07:14:15;13.70;74.10
32296;DHT22;18781;51.550;5.418;2023-03-31T07:16:40;13.80;74.20
32296;DHT22;18781;51.550;5.418;2023-03-31T07:19:06;13.80;74.30
32296;DHT22;18781;51.550;5.418;2023-03-31T07:21:35;13.80;74.30
32296;DHT22;18781;51.550;5.418;2023-03-31T07:24:01;13.80;74.30
32296;DHT22;18781;51.550;5.418;2023-03-31T07:26:27;13.80;74.40
32296;DHT22;18781;51.550;5.418;2023-03-31T07:28:52;13.80;74.80
32296;DHT22;18781;51.550;5.418;2023-03-31T07:31:21;13.80;74.40
32296;DHT22;18781;51.550;5.418;2023-03-31T07:33:47;13.80;74.50
32296;DHT22;18781;51.550;5.418;2023-03-31T07:36:13;13.80;74.60
32296;DHT22;18781;51.550;5.418;2023-03-31T07:38:40;13.80;74.60
32296;DHT22;18781;51.550;5.418;2023-03-31T07:41:10;13.80;74.60
32296;DHT22;18781;51.550;5.418;2023-03-31T07:43:36;13.90;74.70
32296;DHT22;18781;51.550;5.418;2023-03-31T07:46:02;13.90;74.70
32296;DHT22;18781;51.550;5.418;2023-03-31T07:48:27;13.90;74.60
32296;DHT22;18781;51.550;5.418;2023-03-31T07:50:54;13.90;74.80
32296;DHT22;18781;51.550;5.418;2023-03-31T07:53:19;13.90;74.70
32296;DHT22;18781;51.550;5.418;2023-03-31T07:55:46;14.00;74.80
32296;DHT22;18781;51.550;5.418;2023-03-31T07:58:12;13.90;74.80
32296;DHT22;18781;51.550;5.418;2023-03-31T08:00:37;14.00;74.90
32296;DHT22;18781;51.550;5.418;2023-03-31T08:03:03;14.00;75.00
32296;DHT22;18781;51.550;5.418;2023-03-31T08:05:29;14.00;75.10
32296;DHT22;18781;51.550;5.418;2023-03-31T08:07:54;14.10;75.10
32296;DHT22;18781;51.550;5.418;2023-03-31T08:10:23;14.10;75.20
32296;DHT22;18781;51.550;5.418;2023-03-31T08:12:49;14.10;75.30
32296;DHT22;18781;51.550;5.418;2023-03-31T08:15:15;14.10;75.20
32296;DHT22;18781;51.550;5.418;2023-03-31T08:17:41;14.20;75.20
32296;DHT22;18781;51.550;5.418;2023-03-31T08:20:08;14.20;75.40
32296;DHT22;18781;51.550;5.418;2023-03-31T08:22:35;14.20;75.50
32296;DHT22;18781;51.550;5.418;2023-03-31T08:25:02;14.30;75.50
32296;DHT22;18781;51.550;5.418;2023-03-31T08:27:31;14.30;75.60
32296;DHT22;18781;51.550;5.418;2023-03-31T08:29:56;14.40;75.60
32296;DHT22;18781;51.550;5.418;2023-03-31T08:32:22;14.40;75.60
32296;DHT22;18781;51.550;5.418;2023-03-31T08:34:48;14.40;75.70
32296;DHT22;18781;51.550;5.418;2023-03-31T08:37:14;14.40;75.70
32296;DHT22;18781;51.550;5.418;2023-03-31T08:39:39;14.50;75.60
32296;DHT22;18781;51.550;5.418;2023-03-31T08:42:34;14.60;75.60
32296;DHT22;18781;51.550;5.418;2023-03-31T08:45:15;14.60;75.60
32296;DHT22;18781;51.550;5.418;2023-03-31T08:47:42;14.60;75.40
32296;DHT22;18781;51.550;5.418;2023-03-31T08:50:15;14.70;75.40
32296;DHT22;18781;51.550;5.418;2023-03-31T08:52:46;14.70;75.40
32296;DHT22;18781;51.550;5.418;2023-03-31T08:55:23;14.70;75.30
32296;DHT22;18781;51.550;5.418;2023-03-31T08:58:37;14.80;75.30
32296;DHT22;18781;51.550;5.418;2023-03-31T09:00:59;14.80;75.10
32296;DHT22;18781;51.550;5.418;2023-03-31T09:06:40;14.90;74.60
32296;DHT22;18781;51.550;5.418;2023-03-31T09:09:24;14.90;74.80
32296;DHT22;18781;51.550;5.418;2023-03-31T09:11:57;15.00;74.80
32296;DHT22;18781;51.550;5.418;2023-03-31T09:14:31;15.00;74.30
32296;DHT22;18781;51.550;5.418;2023-03-31T09:22:32;15.20;73.70
32296;DHT22;18781;51.550;5.418;2023-03-31T09:25:06;15.20;73.10
32296;DHT22;18781;51.550;5.418;2023-03-31T09:27:36;15.20;73.20
32296;DHT22;18781;51.550;5.418;2023-03-31T09:30:28;15.20;73.10
32296;DHT22;18781;51.550;5.418;2023-03-31T09:33:10;15.30;73.00
32296;DHT22;18781;51.550;5.418;2023-03-31T09:35:37;15.30;72.40
32296;DHT22;18781;51.550;5.418;2023-03-31T09:38:02;15.30;72.10
32296;DHT22;18781;51.550;5.418;2023-03-31T09:40:28;15.30;71.70
32296;DHT22;18781;51.550;5.418;2023-03-31T09:43:03;15.30;71.50
32296;DHT22;18781;51.550;5.418;2023-03-31T09:45:30;15.40;71.20
32296;DHT22;18781;51.550;5.418;2023-03-31T09:48:01;15.40;70.90
32296;DHT22;18781;51.550;5.418;2023-03-31T09:50:29;15.40;70.90
32296;DHT22;18781;51.550;5.418;2023-03-31T09:52:57;15.40;71.00
32296;DHT22;18781;51.550;5.418;2023-03-31T09:57:54;15.50;71.20
32296;DHT22;18781;51.550;5.418;2023-03-31T10:00:21;15.50;70.90
32296;DHT22;18781;51.550;5.418;2023-03-31T10:02:51;15.60;70.80
32296;DHT22;18781;51.550;5.418;2023-03-31T10:05:33;15.60;70.40
32296;DHT22;18781;51.550;5.418;2023-03-31T10:10:53;15.70;69.60
32296;DHT22;18781;51.550;5.418;2023-03-31T10:13:22;15.70;69.30
32296;DHT22;18781;51.550;5.418;2023-03-31T10:15:52;15.70;69.10
32296;DHT22;18781;51.550;5.418;2023-03-31T10:18:19;15.80;68.90
32296;DHT22;18781;51.550;5.418;2023-03-31T10:20:50;15.80;68.80
32296;DHT22;18781;51.550;5.418;2023-03-31T10:23:22;15.80;68.80
32296;DHT22;18781;51.550;5.418;2023-03-31T10:25:49;15.80;68.20
32296;DHT22;18781;51.550;5.418;2023-03-31T10:28:18;15.90;68.50
32296;DHT22;18781;51.550;5.418;2023-03-31T10:30:53;15.90;68.70
32296;DHT22;18781;51.550;5.418;2023-03-31T10:33:25;15.90;68.60
32296;DHT22;18781;51.550;5.418;2023-03-31T10:35:59;16.00;68.30
32296;DHT22;18781;51.550;5.418;2023-03-31T10:38:35;16.00;68.20
32296;DHT22;18781;51.550;5.418;2023-03-31T10:41:01;16.00;68.70
32296;DHT22;18781;51.550;5.418;2023-03-31T10:43:39;16.00;67.90
32296;DHT22;18781;51.550;5.418;2023-03-31T10:46:05;16.10;67.50
32296;DHT22;18781;51.550;5.418;2023-03-31T10:48:32;16.00;67.60
32296;DHT22;18781;51.550;5.418;2023-03-31T10:51:25;16.10;67.60
32296;DHT22;18781;51.550;5.418;2023-03-31T10:53:53;16.10;67.60
32296;DHT22;18781;51.550;5.418;2023-03-31T11:01:58;16.10;67.40
32296;DHT22;18781;51.550;5.418;2023-03-31T11:07:34;16.10;66.70
32296;DHT22;18781;51.550;5.418;2023-03-31T11:10:28;16.10;66.70
32296;DHT22;18781;51.550;5.418;2023-03-31T11:13:07;16.10;67.10
32296;DHT22;18781;51.550;5.418;2023-03-31T11:18:38;16.10;67.60
32296;DHT22;18781;51.550;5.418;2023-03-31T11:24:16;16.20;67.60
32296;DHT22;18781;51.550;5.418;2023-03-31T11:40:45;16.40;67.10
32296;DHT22;18781;51.550;5.418;2023-03-31T11:48:37;16.50;66.30
32296;DHT22;18781;51.550;5.418;2023-03-31T11:51:30;16.50;65.50
32296;DHT22;18781;51.550;5.418;2023-03-31T11:53:57;16.50;64.30
32296;DHT22;18781;51.550;5.418;2023-03-31T11:56:29;16.60;64.30
32296;DHT22;18781;51.550;5.418;2023-03-31T11:58:59;16.60;65.60
32296;DHT22;18781;51.550;5.418;2023-03-31T12:01:44;16.50;64.00
32296;DHT22;18781;51.550;5.418;2023-03-31T12:04:37;16.50;63.60
32296;DHT22;18781;51.550;5.418;2023-03-31T12:07:28;16.50;63.20
32296;DHT22;18781;51.550;5.418;2023-03-31T12:10:33;16.50;63.00
32296;DHT22;18781;51.550;5.418;2023-03-31T12:16:00;16.50;62.30
32296;DHT22;18781;51.550;5.418;2023-03-31T12:18:33;16.50;61.40
32296;DHT22;18781;51.550;5.418;2023-03-31T12:21:02;16.60;60.90
32296;DHT22;18781;51.550;5.418;2023-03-31T12:23:33;16.60;61.30
32296;DHT22;18781;51.550;5.418;2023-03-31T12:28:37;16.60;61.90
32296;DHT22;18781;51.550;5.418;2023-03-31T12:31:06;16.60;61.90
32296;DHT22;18781;51.550;5.418;2023-03-31T12:33:40;16.60;62.00
32296;DHT22;18781;51.550;5.418;2023-03-31T12:39:21;16.70;62.70
32296;DHT22;18781;51.550;5.418;2023-03-31T12:50:25;16.90;61.40
32296;DHT22;18781;51.550;5.418;2023-03-31T12:53:53;16.90;62.10
32296;DHT22;18781;51.550;5.418;2023-03-31T12:56:05;16.90;61.80
32296;DHT22;18781;51.550;5.418;2023-03-31T12:58:37;16.90;61.40
32296;DHT22;18781;51.550;5.418;2023-03-31T13:01:24;16.90;61.20
32296;DHT22;18781;51.550;5.418;2023-03-31T13:04:07;16.90;61.60
32296;DHT22;18781;51.550;5.418;2023-03-31T13:11:39;16.90;61.80
32296;DHT22;18781;51.550;5.418;2023-03-31T13:14:26;16.90;62.50
32296;DHT22;18781;51.550;5.418;2023-03-31T13:22:59;16.70;63.50
32296;DHT22;18781;51.550;5.418;2023-03-31T13:27:56;16.70;63.00
32296;DHT22;18781;51.550;5.418;2023-03-31T13:33:30;16.60;63.70
32296;DHT22;18781;51.550;5.418;2023-03-31T13:39:11;16.50;64.10
32296;DHT22;18781;51.550;5.418;2023-03-31T13:47:06;16.40;64.30
32296;DHT22;18781;51.550;5.418;2023-03-31T13:52:48;16.40;65.20
32296;DHT22;18781;51.550;5.418;2023-03-31T14:03:57;16.30;65.10
32296;DHT22;18781;51.550;5.418;2023-03-31T14:06:43;16.30;65.20
32296;DHT22;18781;51.550;5.418;2023-03-31T14:09:21;16.30;65.20
32296;DHT22;18781;51.550;5.418;2023-03-31T14:11:48;16.30;65.10
32296;DHT22;18781;51.550;5.418;2023-03-31T14:14:17;16.20;65.50
32296;DHT22;18781;51.550;5.418;2023-03-31T14:16:59;16.20;65.60
32296;DHT22;18781;51.550;5.418;2023-03-31T14:19:48;16.20;65.90
32296;DHT22;18781;51.550;5.418;2023-03-31T14:30:32;16.10;66.10
32296;DHT22;18781;51.550;5.418;2023-03-31T14:38:36;16.00;66.40
32296;DHT22;18781;51.550;5.418;2023-03-31T14:41:02;16.00;66.50
32296;DHT22;18781;51.550;5.418;2023-03-31T14:43:31;15.90;66.50
32296;DHT22;18781;51.550;5.418;2023-03-31T14:46:05;15.90;66.50
32296;DHT22;18781;51.550;5.418;2023-03-31T14:48:39;15.90;66.40
32296;DHT22;18781;51.550;5.418;2023-03-31T14:51:10;15.90;66.30
32296;DHT22;18781;51.550;5.418;2023-03-31T14:53:36;15.90;66.20
32296;DHT22;18781;51.550;5.418;2023-03-31T14:56:18;15.90;66.00
32296;DHT22;18781;51.550;5.418;2023-03-31T14:58:49;15.80;65.20
32296;DHT22;18781;51.550;5.418;2023-03-31T15:01:23;15.80;64.90
32296;DHT22;18781;51.550;5.418;2023-03-31T15:03:51;15.80;65.00
32296;DHT22;18781;51.550;5.418;2023-03-31T15:06:17;15.80;64.80
32296;DHT22;18781;51.550;5.418;2023-03-31T15:08:42;15.70;65.20
32296;DHT22;18781;51.550;5.418;2023-03-31T15:11:13;15.70;65.40
32296;DHT22;18781;51.550;5.418;2023-03-31T15:13:42;15.60;65.40
32296;DHT22;18781;51.550;5.418;2023-03-31T15:18:56;15.60;65.30
32296;DHT22;18781;51.550;5.418;2023-03-31T15:21:24;15.60;65.50
32296;DHT22;18781;51.550;5.418;2023-03-31T15:23:51;15.60;65.50
32296;DHT22;18781;51.550;5.418;2023-03-31T15:26:20;15.50;65.70
32296;DHT22;18781;51.550;5.418;2023-03-31T15:29:05;15.50;65.80
32296;DHT22;18781;51.550;5.418;2023-03-31T15:31:32;15.50;65.80
32296;DHT22;18781;51.550;5.418;2023-03-31T15:33:58;15.50;66.10
32296;DHT22;18781;51.550;5.418;2023-03-31T15:36:24;15.50;66.10
32296;DHT22;18781;51.550;5.418;2023-03-31T15:38:56;15.50;66.10
32296;DHT22;18781;51.550;5.418;2023-03-31T15:41:28;15.50;66.30
32296;DHT22;18781;51.550;5.418;2023-03-31T15:46:59;15.50;66.20
32296;DHT22;18781;51.550;5.418;2023-03-31T15:49:26;15.40;66.40
32296;DHT22;18781;51.550;5.418;2023-03-31T15:51:54;15.40;66.50
32296;DHT22;18781;51.550;5.418;2023-03-31T15:54:39;15.40;66.80
32296;DHT22;18781;51.550;5.418;2023-03-31T15:57:07;15.30;67.00
32296;DHT22;18781;51.550;5.418;2023-03-31T15:59:44;15.30;66.80
32296;DHT22;18781;51.550;5.418;2023-03-31T16:02:14;15.30;67.20
32296;DHT22;18781;51.550;5.418;2023-03-31T16:04:40;15.30;67.10
32296;DHT22;18781;51.550;5.418;2023-03-31T16:07:13;15.30;67.10
32296;DHT22;18781;51.550;5.418;2023-03-31T16:12:28;15.20;67.30
32296;DHT22;18781;51.550;5.418;2023-03-31T16:14:59;15.20;67.30
32296;DHT22;18781;51.550;5.418;2023-03-31T16:17:38;15.20;67.30
32296;DHT22;18781;51.550;5.418;2023-03-31T16:20:10;15.10;67.40
32296;DHT22;18781;51.550;5.418;2023-03-31T16:22:44;15.10;67.40
32296;DHT22;18781;51.550;5.418;2023-03-31T16:25:11;15.10;67.50
32296;DHT22;18781;51.550;5.418;2023-03-31T16:27:44;15.10;67.30
32296;DHT22;18781;51.550;5.418;2023-03-31T16:30:19;15.00;67.30
32296;DHT22;18781;51.550;5.418;2023-03-31T16:33:09;15.00;67.60
32296;DHT22;18781;51.550;5.418;2023-03-31T16:35:36;15.00;67.80
32296;DHT22;18781;51.550;5.418;2023-03-31T16:38:04;15.00;67.90
32296;DHT22;18781;51.550;5.418;2023-03-31T16:40:35;14.90;67.90
32296;DHT22;18781;51.550;5.418;2023-03-31T16:45:36;14.90;67.90
32296;DHT22;18781;51.550;5.418;2023-03-31T16:48:02;14.90;67.90
32296;DHT22;18781;51.550;5.418;2023-03-31T16:50:28;14.90;67.80
32296;DHT22;18781;51.550;5.418;2023-03-31T16:52:54;14.90;67.80
32296;DHT22;18781;51.550;5.418;2023-03-31T16:55:20;14.90;68.00
32296;DHT22;18781;51.550;5.418;2023-03-31T16:57:46;14.90;68.10
32296;DHT22;18781;51.550;5.418;2023-03-31T17:00:13;14.90;68.10
32296;DHT22;18781;51.550;5.418;2023-03-31T17:02:39;14.90;68.00
32296;DHT22;18781;51.550;5.418;2023-03-31T17:05:05;14.80;68.00
32296;DHT22;18781;51.550;5.418;2023-03-31T17:07:30;14.80;67.90
32296;DHT22;18781;51.550;5.418;2023-03-31T17:09:57;14.90;67.90
32296;DHT22;18781;51.550;5.418;2023-03-31T17:12:23;14.80;67.70
32296;DHT22;18781;51.550;5.418;2023-03-31T17:14:48;14.80;67.80
32296;DHT22;18781;51.550;5.418;2023-03-31T17:17:14;14.80;67.90
32296;DHT22;18781;51.550;5.418;2023-03-31T17:19:39;14.80;67.80
32296;DHT22;18781;51.550;5.418;2023-03-31T17:22:05;14.80;67.90
32296;DHT22;18781;51.550;5.418;2023-03-31T17:24:31;14.80;68.00
32296;DHT22;18781;51.550;5.418;2023-03-31T17:26:57;14.70;68.00
32296;DHT22;18781;51.550;5.418;2023-03-31T17:29:22;14.70;68.20
32296;DHT22;18781;51.550;5.418;2023-03-31T17:31:49;14.70;68.30
32296;DHT22;18781;51.550;5.418;2023-03-31T17:34:14;14.60;68.50
32296;DHT22;18781;51.550;5.418;2023-03-31T17:36:41;14.60;69.20
32296;DHT22;18781;51.550;5.418;2023-03-31T17:39:08;14.60;68.70
32296;DHT22;18781;51.550;5.418;2023-03-31T17:41:34;14.60;68.90
32296;DHT22;18781;51.550;5.418;2023-03-31T17:44:01;14.60;69.00
32296;DHT22;18781;51.550;5.418;2023-03-31T17:46:26;14.60;69.10
32296;DHT22;18781;51.550;5.418;2023-03-31T17:48:52;14.50;69.20
32296;DHT22;18781;51.550;5.418;2023-03-31T17:51:19;14.50;69.40
32296;DHT22;18781;51.550;5.418;2023-03-31T17:53:46;14.50;69.40
32296;DHT22;18781;51.550;5.418;2023-03-31T17:56:13;14.50;69.60
32296;DHT22;18781;51.550;5.418;2023-03-31T17:58:39;14.50;69.70
32296;DHT22;18781;51.550;5.418;2023-03-31T18:01:07;14.40;69.80
32296;DHT22;18781;51.550;5.418;2023-03-31T18:03:33;14.50;69.80
32296;DHT22;18781;51.550;5.418;2023-03-31T18:06:10;14.40;69.80
32296;DHT22;18781;51.550;5.418;2023-03-31T18:08:37;14.40;70.20
32296;DHT22;18781;51.550;5.418;2023-03-31T18:11:05;14.40;70.10
32296;DHT22;18781;51.550;5.418;2023-03-31T18:13:32;14.40;70.10
32296;DHT22;18781;51.550;5.418;2023-03-31T18:15:59;14.40;70.20